Frankton, Indiana
Current Conditions -  °F | °C
As of 1:55 PM on Saturday 25 Oct 2014 (Local Time) from KMZZ Reporting Station
Clear Clear  
Wind Chill: 71°   Ceiling: Unl
Heat Index: 71°   Visibility: 7mi
Dew Point: 51°   Wind: 14mph
Humidity: 49%   Direction: 290°WNW
Pressure: 29.93"   Gusts: 22mph
Location:  40.22°N, 85.78°W
Report Text: KMZZ 251755Z AUTO 29012G19KT 7SM CLR 22/11 A2993 RMK AO2 T02180105 10324 21015
Loading
Personal Weather Stations






























Interactive Weather Map
Tropical Storm Tracking
New forecast layout! Learn more

10-Day Weather Forecast

Advertisements
Track Severe Weather on mobile